Pagina principală
METAR-TAF:

METAR-TAF

Aeroporturi :

Sexton Summit, Oregon, Statele Unite ale Americii

Latitudine: 42-36-01N, longitudine: 123-21-51W, elevație: 0 m

Observații meteo curente

Raportul a fost făcut în urmă cu 6 ore și 32 de minute, la 13:56 UTC
Vânt 3 kt de la Est
Temperatură 22°C
Umiditate 41%
Presiune 1019 hPa
Vizibilitate: 16.1 km
Cer senin

METAR: KSXT 161356Z AUTO 10003KT 10SM CLR 22/08 A3009 RMK AO2 SLP122 T02170078

Ora: 13:28 (20:28 UTC)


TAF: lipsă

Observații și prognoze meteo pentru peste 4.000 de aeroporturi (rapoarte METAR și TAF).

Stațiile disponibile sunt reprezentate pe hartă prin puncte galbene și roșii.

Țineți indicatorul mouse-ului pe punctul dorit pentru a vedea denumirea stației.

Apoi, faceți clic pentru a vedea observațiile și prognozele meteorologice.

Pentru a schimba harta: Pentru mărire, faceți clic pe butoanele verzi cu cruce neagră; pentru micșorare, pe butonul verde cu o liniuță; pentru hărți învecinate, pe săgețile verzi.


METAR-TAF: